createdAt,value
2023-02-19T00:00:07.357Z,99664.28
2023-02-19T00:02:36.119Z,99676.22
2023-02-19T00:05:06.233Z,99680.41
2023-02-19T00:07:33.314Z,99676.69
2023-02-19T00:10:00.314Z,99672.94
2023-02-19T00:12:28.019Z,99677.88
2023-02-19T00:14:56.065Z,99675.31
2023-02-19T00:17:23.080Z,99687.97
2023-02-19T00:19:50.065Z,99684.47
2023-02-19T00:22:16.993Z,99685.13
2023-02-19T00:24:43.950Z,99687.66
2023-02-19T00:27:11.186Z,99685.06
2023-02-19T00:29:38.094Z,99685.97
2023-02-19T00:32:05.472Z,99673.75
2023-02-19T00:34:32.506Z,99685.78
2023-02-19T00:36:59.530Z,99697.63
2023-02-19T00:39:26.573Z,99702.47
2023-02-19T00:41:53.528Z,99693.13
2023-02-19T00:44:23.437Z,99699.81
2023-02-19T00:46:50.623Z,99706.81
2023-02-19T00:49:26.776Z,99702.63
2023-02-19T00:51:54.226Z,99716.38
2023-02-19T00:54:24.905Z,99713.47
2023-02-19T00:56:52.143Z,99711.13
2023-02-19T00:59:19.628Z,99696.59
2023-02-19T01:01:50.323Z,99691.97
2023-02-19T01:04:17.776Z,99687.88
2023-02-19T01:06:45.526Z,99687.88
2023-02-19T01:09:12.508Z,99694.84
2023-02-19T01:11:39.534Z,99690.72
2023-02-19T01:14:06.456Z,99698.53
2023-02-19T01:16:33.519Z,99695.78
2023-02-19T01:19:00.644Z,99686.16
2023-02-19T01:21:30.265Z,99689.53
2023-02-19T01:23:59.470Z,99682.69
2023-02-19T01:26:29.503Z,99694.88
2023-02-19T01:28:57.583Z,99691.59
2023-02-19T01:31:25.948Z,99685.00
2023-02-19T01:33:55.944Z,99688.28
2023-02-19T01:36:25.299Z,99689.25
2023-02-19T01:38:53.377Z,99694.44
2023-02-19T01:41:23.606Z,99697.09
2023-02-19T01:44:17.351Z,99696.56
2023-02-19T01:46:48.840Z,99702.22
2023-02-19T01:49:19.187Z,99699.25
2023-02-19T01:51:50.757Z,99702.16
2023-02-19T01:54:21.596Z,99691.66
2023-02-19T01:56:52.776Z,99700.56
2023-02-19T01:59:19.990Z,99691.38
2023-02-19T02:01:46.984Z,99703.38
2023-02-19T02:04:15.745Z,99683.97
2023-02-19T02:06:52.355Z,99689.22
2023-02-19T02:09:38.552Z,99692.13
2023-02-19T02:12:05.591Z,99691.97
2023-02-19T02:14:38.137Z,99686.97
2023-02-19T02:17:23.369Z,99693.47
2023-02-19T02:20:14.900Z,99693.25
2023-02-19T02:23:22.787Z,99686.66
2023-02-19T02:26:25.930Z,99685.34
2023-02-19T02:28:58.473Z,99692.25
2023-02-19T02:31:39.605Z,99687.97
2023-02-19T02:34:21.136Z,99683.34
2023-02-19T02:36:54.545Z,99678.09
2023-02-19T02:39:25.733Z,99677.13
2023-02-19T02:42:16.613Z,99689.19
2023-02-19T02:45:04.932Z,99686.09
2023-02-19T02:47:44.961Z,99677.66
2023-02-19T02:50:18.567Z,99681.06
2023-02-19T02:53:07.103Z,99690.97
2023-02-19T02:55:38.964Z,99691.81
2023-02-19T02:58:07.760Z,99688.47
2023-02-19T03:00:55.754Z,99678.13
2023-02-19T03:03:26.121Z,99682.56
2023-02-19T03:05:57.837Z,99676.00
2023-02-19T03:08:31.802Z,99675.81
2023-02-19T03:11:24.670Z,99660.78
2023-02-19T03:14:28.900Z,99674.63
2023-02-19T03:17:21.747Z,99667.50
2023-02-19T03:19:52.540Z,99682.06
2023-02-19T03:22:25.019Z,99682.75
2023-02-19T03:25:47.005Z,99679.66
2023-02-19T03:28:17.737Z,99683.00
2023-02-19T03:30:52.374Z,99690.97
2023-02-19T03:33:24.190Z,99677.16
2023-02-19T03:36:00.344Z,99685.56
2023-02-19T03:38:37.089Z,99657.69
2023-02-19T03:41:25.352Z,99665.16
2023-02-19T03:44:17.976Z,99662.63
2023-02-19T03:47:12.690Z,99664.22
2023-02-19T03:49:57.904Z,99665.75
2023-02-19T03:52:42.192Z,99669.63
2023-02-19T03:55:24.797Z,99673.56
2023-02-19T03:58:03.938Z,99673.88
2023-02-19T04:00:52.928Z,99674.81
2023-02-19T04:03:37.538Z,99674.13
2023-02-19T04:06:17.737Z,99682.91
2023-02-19T04:08:49.049Z,99678.03
2023-02-19T04:11:19.423Z,99671.75
2023-02-19T04:14:01.616Z,99669.84
2023-02-19T04:16:30.140Z,99676.94
2023-02-19T04:19:06.612Z,99673.28
2023-02-19T04:21:35.112Z,99667.22
2023-02-19T04:24:07.211Z,99672.91
2023-02-19T04:26:35.687Z,99666.81
2023-02-19T04:29:02.504Z,99665.06
2023-02-19T04:31:35.390Z,99667.19
2023-02-19T04:34:04.078Z,99669.72
2023-02-19T04:36:33.993Z,99666.25
2023-02-19T04:39:00.999Z,99673.13
2023-02-19T04:41:28.006Z,99668.75
2023-02-19T04:43:54.889Z,99664.31
2023-02-19T04:46:21.920Z,99665.75
2023-02-19T04:48:48.817Z,99668.03
2023-02-19T04:51:15.834Z,99669.81
2023-02-19T04:53:43.016Z,99671.53
2023-02-19T04:56:12.672Z,99663.00
2023-02-19T04:58:39.952Z,99662.19
2023-02-19T05:01:07.075Z,99659.06
2023-02-19T05:03:39.933Z,99647.75
2023-02-19T05:06:09.229Z,99660.81
2023-02-19T05:08:36.525Z,99652.31
2023-02-19T05:11:06.433Z,99654.34
2023-02-19T05:13:33.741Z,99659.53
2023-02-19T05:16:14.153Z,99670.91
2023-02-19T05:18:41.700Z,99658.84
2023-02-19T05:21:09.653Z,99664.31
2023-02-19T05:23:37.134Z,99663.44
2023-02-19T05:26:08.960Z,99668.69
2023-02-19T05:28:35.967Z,99667.88
2023-02-19T05:31:09.852Z,99685.16
2023-02-19T05:33:38.208Z,99679.78
2023-02-19T05:36:10.457Z,99676.19
2023-02-19T05:38:38.083Z,99681.56
2023-02-19T05:41:10.722Z,99683.47
2023-02-19T05:43:39.752Z,99680.88
2023-02-19T05:46:07.559Z,99677.53
2023-02-19T05:48:34.749Z,99689.63
2023-02-19T05:51:06.344Z,99682.34
2023-02-19T05:53:33.678Z,99672.75
2023-02-19T05:56:00.599Z,99686.13
2023-02-19T05:58:28.069Z,99674.50
2023-02-19T06:00:55.954Z,99674.03
2023-02-19T06:03:23.234Z,99675.81
2023-02-19T06:05:50.075Z,99685.28
2023-02-19T06:08:17.023Z,99680.81
2023-02-19T06:10:43.855Z,99676.78
2023-02-19T06:13:10.815Z,99678.53
2023-02-19T06:15:38.065Z,99676.03
2023-02-19T06:18:05.236Z,99682.34
2023-02-19T06:20:33.217Z,99677.25
2023-02-19T06:23:00.180Z,99674.19
2023-02-19T06:25:26.997Z,99684.69
2023-02-19T06:27:53.784Z,99691.97
2023-02-19T06:30:20.872Z,99682.06
2023-02-19T06:32:47.745Z,99677.50
2023-02-19T06:35:14.598Z,99680.59
2023-02-19T06:37:41.511Z,99688.84
2023-02-19T06:40:08.826Z,99674.63
2023-02-19T06:42:35.757Z,99677.47
2023-02-19T06:45:02.600Z,99679.81
2023-02-19T06:47:32.976Z,99680.38
2023-02-19T06:50:00.848Z,99687.81
2023-02-19T06:52:28.485Z,99680.97
2023-02-19T06:54:55.253Z,99678.63
2023-02-19T06:57:22.060Z,99679.03
2023-02-19T06:59:48.930Z,99680.19
2023-02-19T07:02:18.930Z,99675.47
2023-02-19T07:04:45.820Z,99675.09
2023-02-19T07:07:13.445Z,99670.50
2023-02-19T07:09:40.350Z,99665.63
2023-02-19T07:12:08.062Z,99666.00
2023-02-19T07:14:34.949Z,99659.16
2023-02-19T07:17:01.935Z,99662.56
2023-02-19T07:19:28.725Z,99661.72
2023-02-19T07:21:55.885Z,99656.31
2023-02-19T07:24:22.832Z,99652.78
2023-02-19T07:26:49.848Z,99662.59
2023-02-19T07:29:16.814Z,99658.09
2023-02-19T07:31:43.893Z,99646.66
2023-02-19T07:34:10.801Z,99637.13
2023-02-19T07:36:37.734Z,99638.63
2023-02-19T07:39:04.642Z,99639.16
2023-02-19T07:41:32.159Z,99641.97
2023-02-19T07:44:18.057Z,99638.72
2023-02-19T07:46:45.008Z,99638.00
2023-02-19T07:49:11.924Z,99639.91
2023-02-19T07:51:57.336Z,99639.84
2023-02-19T07:54:24.119Z,99646.88
2023-02-19T07:56:51.089Z,99647.78
2023-02-19T07:59:19.617Z,99646.91
2023-02-19T08:02:05.051Z,99653.84
2023-02-19T08:04:31.972Z,99647.56
2023-02-19T08:06:58.755Z,99627.28
2023-02-19T08:09:25.642Z,99637.41
2023-02-19T08:12:11.322Z,99630.75
2023-02-19T08:14:58.077Z,99643.38
2023-02-19T08:17:25.057Z,99633.56
2023-02-19T08:19:52.085Z,99630.38
2023-02-19T08:22:19.426Z,99623.22
2023-02-19T08:24:46.346Z,99606.81
2023-02-19T08:27:13.260Z,99612.69
2023-02-19T08:29:40.202Z,99618.31
2023-02-19T08:32:07.213Z,99620.47
2023-02-19T08:34:34.035Z,99622.78
2023-02-19T08:37:02.378Z,99622.16
2023-02-19T08:39:29.223Z,99617.38
2023-02-19T08:41:55.996Z,99604.47
2023-02-19T08:44:22.782Z,99605.19
2023-02-19T08:46:49.805Z,99605.44
2023-02-19T08:49:16.705Z,99597.94
2023-02-19T08:52:02.248Z,99591.34
2023-02-19T08:54:30.153Z,99585.22
2023-02-19T08:57:15.732Z,99593.22
2023-02-19T08:59:42.594Z,99588.13
2023-02-19T09:02:10.293Z,99588.25
2023-02-19T09:04:37.972Z,99589.56
2023-02-19T09:07:08.040Z,99585.72
2023-02-19T09:09:37.657Z,99579.91
2023-02-19T09:12:08.982Z,99571.88
2023-02-19T09:14:36.277Z,99570.72
2023-02-19T09:17:05.511Z,99575.28
2023-02-19T09:19:33.037Z,99581.66
2023-02-19T09:22:00.344Z,99573.84
2023-02-19T09:24:27.410Z,99571.50
2023-02-19T09:26:55.457Z,99562.31
2023-02-19T09:29:25.589Z,99555.09
2023-02-19T09:31:57.124Z,99552.34
2023-02-19T09:34:25.508Z,99543.19
2023-02-19T09:36:52.666Z,99540.88
2023-02-19T09:39:20.420Z,99536.69
2023-02-19T09:41:55.472Z,99539.06
2023-02-19T09:44:29.783Z,99526.53
2023-02-19T09:46:57.242Z,99520.53
2023-02-19T09:49:32.179Z,99526.22
2023-02-19T09:52:07.977Z,99517.56
2023-02-19T09:54:37.519Z,99516.13
2023-02-19T09:57:04.983Z,99515.50
2023-02-19T09:59:41.155Z,99507.50
2023-02-19T10:02:17.504Z,99505.06
2023-02-19T10:04:46.050Z,99492.22
2023-02-19T10:07:18.546Z,99497.72
2023-02-19T10:10:02.142Z,99484.97
2023-02-19T10:12:32.069Z,99477.56
2023-02-19T10:15:11.776Z,99472.22
2023-02-19T10:17:38.817Z,99457.00
2023-02-19T10:20:06.315Z,99459.97
2023-02-19T10:22:37.019Z,99467.38
2023-02-19T10:25:22.464Z,99462.84
2023-02-19T10:27:49.614Z,99445.53
2023-02-19T10:30:29.747Z,99452.13
2023-02-19T10:33:02.709Z,99441.91
2023-02-19T10:35:31.373Z,99449.88
2023-02-19T10:37:58.368Z,99444.66
2023-02-19T10:40:27.799Z,99444.03
2023-02-19T10:42:59.528Z,99433.81
2023-02-19T10:45:50.684Z,99443.13
2023-02-19T10:48:28.437Z,99441.66
2023-02-19T10:50:58.447Z,99431.97
2023-02-19T10:53:41.900Z,99427.50
2023-02-19T10:56:13.035Z,99420.00
2023-02-19T10:58:42.486Z,99430.19
2023-02-19T11:01:16.571Z,99423.59
2023-02-19T11:03:43.561Z,99411.69
2023-02-19T11:06:14.024Z,99412.03
2023-02-19T11:08:52.096Z,99411.38
2023-02-19T11:11:23.292Z,99402.31
2023-02-19T11:13:50.782Z,99388.94
2023-02-19T11:16:18.144Z,99389.84
2023-02-19T11:18:54.826Z,99380.53
2023-02-19T11:21:33.184Z,99383.94
2023-02-19T11:24:02.400Z,99386.22
2023-02-19T11:26:35.511Z,99373.81
2023-02-19T11:29:17.522Z,99365.13
2023-02-19T11:31:44.549Z,99370.09
2023-02-19T11:34:13.968Z,99368.03
2023-02-19T11:36:41.831Z,99352.28
2023-02-19T11:39:17.832Z,99358.19
2023-02-19T11:42:14.260Z,99345.19
2023-02-19T11:45:05.409Z,99349.69
2023-02-19T11:47:44.245Z,99346.25
2023-02-19T11:50:11.163Z,99346.34
2023-02-19T11:53:12.084Z,99331.31
2023-02-19T11:55:57.037Z,99341.84
2023-02-19T11:58:48.769Z,99328.47
2023-02-19T12:01:40.006Z,99328.31
2023-02-19T12:04:37.944Z,99331.31
2023-02-19T12:07:49.275Z,99322.31
2023-02-19T12:10:48.156Z,99317.56
2023-02-19T12:13:45.312Z,99314.59
2023-02-19T12:16:26.302Z,99311.34
2023-02-19T12:19:02.492Z,99315.13
2023-02-19T12:22:13.861Z,99305.69
2023-02-19T12:25:25.845Z,99296.28
2023-02-19T12:28:39.737Z,99298.91
2023-02-19T12:31:32.997Z,99291.44
2023-02-19T12:34:21.753Z,99293.25
2023-02-19T12:36:54.246Z,99293.03
2023-02-19T12:39:39.844Z,99278.94
2023-02-19T12:42:44.185Z,99270.91
2023-02-19T12:45:37.423Z,99269.72
2023-02-19T12:48:43.352Z,99276.34
2023-02-19T12:51:21.902Z,99270.47
2023-02-19T12:54:03.745Z,99250.22
2023-02-19T12:56:45.549Z,99257.50
2023-02-19T12:59:22.998Z,99259.22
2023-02-19T13:01:57.306Z,99252.06
2023-02-19T13:05:22.845Z,99252.50
2023-02-19T13:08:07.875Z,99246.31
2023-02-19T13:10:40.810Z,99256.66
2023-02-19T13:13:22.787Z,99248.75
2023-02-19T13:15:59.219Z,99249.38
2023-02-19T13:18:49.127Z,99262.69
2023-02-19T13:21:38.401Z,99260.56
2023-02-19T13:24:15.686Z,99256.50
2023-02-19T13:26:49.405Z,99256.63
2023-02-19T13:29:31.155Z,99243.94
2023-02-19T13:32:19.468Z,99250.63
2023-02-19T13:35:23.088Z,99250.47
2023-02-19T13:37:50.769Z,99248.09
2023-02-19T13:40:39.480Z,99250.31
2023-02-19T13:43:28.266Z,99251.94
2023-02-19T13:46:02.720Z,99258.00
2023-02-19T13:48:35.536Z,99247.50
2023-02-19T13:51:18.842Z,99263.41
2023-02-19T13:53:45.793Z,99264.44
2023-02-19T13:56:31.544Z,99263.53
2023-02-19T13:58:58.350Z,99271.69
2023-02-19T14:01:49.668Z,99267.84
2023-02-19T14:04:48.563Z,99275.97
2023-02-19T14:07:15.284Z,99280.53
2023-02-19T14:09:44.033Z,99285.97
2023-02-19T14:12:10.906Z,99286.84
2023-02-19T14:14:41.432Z,99280.72
2023-02-19T14:17:17.906Z,99280.72
2023-02-19T14:19:51.467Z,99282.00
2023-02-19T14:22:50.359Z,99282.88
2023-02-19T14:25:32.255Z,99288.22
2023-02-19T14:28:28.006Z,99288.47
2023-02-19T14:31:01.126Z,99291.25
2023-02-19T14:33:35.665Z,99292.22
2023-02-19T14:36:18.242Z,99295.81
2023-02-19T14:39:22.628Z,99300.13
2023-02-19T14:41:58.658Z,99309.78
2023-02-19T14:44:29.108Z,99308.25
2023-02-19T14:47:20.855Z,99306.47
2023-02-19T14:50:00.106Z,99311.81
2023-02-19T14:52:34.547Z,99316.13
2023-02-19T14:55:10.077Z,99311.00
2023-02-19T14:57:41.095Z,99309.25
2023-02-19T15:00:27.739Z,99322.38
2023-02-19T15:02:57.761Z,99319.78
2023-02-19T15:05:30.863Z,99320.72
2023-02-19T15:08:09.570Z,99329.44
2023-02-19T15:10:36.976Z,99332.09
2023-02-19T15:13:08.725Z,99324.28
2023-02-19T15:15:43.602Z,99322.56
2023-02-19T15:18:20.056Z,99325.28
2023-02-19T15:20:47.569Z,99331.38
2023-02-19T15:23:22.616Z,99326.84
2023-02-19T15:25:50.774Z,99333.72
2023-02-19T15:28:26.634Z,99332.03
2023-02-19T15:30:59.486Z,99334.81
2023-02-19T15:33:28.335Z,99325.28
2023-02-19T15:35:58.342Z,99328.78
2023-02-19T15:38:26.424Z,99321.81
2023-02-19T15:41:25.705Z,99333.19
2023-02-19T15:44:13.593Z,99327.94
2023-02-19T15:46:41.624Z,99324.28
2023-02-19T15:49:17.374Z,99321.47
2023-02-19T15:52:03.014Z,99334.69
2023-02-19T15:55:03.202Z,99332.28
2023-02-19T15:57:35.752Z,99334.97
2023-02-19T16:00:32.701Z,99348.16
2023-02-19T16:02:59.923Z,99351.69
2023-02-19T16:05:29.064Z,99356.09
2023-02-19T16:08:14.284Z,99357.84
2023-02-19T16:10:52.177Z,99361.38
2023-02-19T16:13:24.693Z,99359.69
2023-02-19T16:16:07.505Z,99360.53
2023-02-19T16:18:35.275Z,99364.91
2023-02-19T16:21:23.459Z,99374.50
2023-02-19T16:23:57.136Z,99370.16
2023-02-19T16:26:24.076Z,99383.22
2023-02-19T16:28:53.744Z,99386.69
2023-02-19T16:31:23.523Z,99387.59
2023-02-19T16:33:51.117Z,99389.31
2023-02-19T16:36:32.775Z,99400.63
2023-02-19T16:39:08.683Z,99407.56
2023-02-19T16:41:41.620Z,99404.13
2023-02-19T16:44:32.593Z,99403.22
2023-02-19T16:47:04.966Z,99406.72
2023-02-19T16:49:32.107Z,99408.47
2023-02-19T16:52:04.499Z,99416.25
2023-02-19T16:54:31.810Z,99421.50
2023-02-19T16:56:58.774Z,99428.44
2023-02-19T16:59:25.588Z,99442.34
2023-02-19T17:01:52.652Z,99438.00
2023-02-19T17:04:19.644Z,99445.84
2023-02-19T17:06:47.489Z,99435.38
2023-02-19T17:09:14.357Z,99446.69
2023-02-19T17:11:41.207Z,99469.25
2023-02-19T17:14:08.419Z,99465.78
2023-02-19T17:16:40.566Z,99467.53
2023-02-19T17:19:16.999Z,99478.81
2023-02-19T17:21:45.443Z,99477.03
2023-02-19T17:24:12.816Z,99481.38
2023-02-19T17:26:39.621Z,99487.44
2023-02-19T17:29:08.744Z,99492.63
2023-02-19T17:31:35.662Z,99488.28
2023-02-19T17:34:02.522Z,99505.66
2023-02-19T17:36:32.153Z,99505.63
2023-02-19T17:39:00.333Z,99504.72
2023-02-19T17:41:27.555Z,99509.06
2023-02-19T17:43:54.609Z,99515.03
2023-02-19T17:46:25.117Z,99528.03
2023-02-19T17:48:52.688Z,99537.56
2023-02-19T17:51:20.259Z,99530.53
2023-02-19T17:53:47.060Z,99534.00
2023-02-19T17:56:25.766Z,99534.81
2023-02-19T17:58:53.309Z,99535.66
2023-02-19T18:01:20.439Z,99541.75
2023-02-19T18:03:47.467Z,99538.22
2023-02-19T18:06:14.668Z,99544.22
2023-02-19T18:08:48.095Z,99539.91
2023-02-19T18:11:15.067Z,99539.84
2023-02-19T18:13:41.826Z,99547.66
2023-02-19T18:16:09.984Z,99551.88
2023-02-19T18:18:37.621Z,99551.09
2023-02-19T18:21:07.918Z,99558.13
2023-02-19T18:23:34.784Z,99565.97
2023-02-19T18:26:01.769Z,99562.44
2023-02-19T18:28:28.661Z,99576.34
2023-02-19T18:30:55.666Z,99578.06
2023-02-19T18:33:22.615Z,99579.84
2023-02-19T18:35:50.537Z,99580.66
2023-02-19T18:38:17.446Z,99571.84
2023-02-19T18:40:44.435Z,99566.63
2023-02-19T18:43:11.439Z,99575.34
2023-02-19T18:45:39.836Z,99584.88
2023-02-19T18:48:06.700Z,99588.28
2023-02-19T18:50:35.123Z,99591.69
2023-02-19T18:53:02.350Z,99596.91
2023-02-19T18:55:29.290Z,99603.00
2023-02-19T18:57:56.117Z,99609.88
2023-02-19T19:00:26.649Z,99615.94
2023-02-19T19:02:58.437Z,99619.38
2023-02-19T19:05:26.234Z,99614.19
2023-02-19T19:07:54.580Z,99631.53
2023-02-19T19:10:22.475Z,99624.56
2023-02-19T19:12:49.809Z,99634.13
2023-02-19T19:15:18.597Z,99641.13
2023-02-19T19:17:46.029Z,99635.16
2023-02-19T19:20:14.031Z,99628.22
2023-02-19T19:22:40.982Z,99639.53
2023-02-19T19:25:08.880Z,99637.69
2023-02-19T19:27:35.764Z,99649.13
2023-02-19T19:30:04.962Z,99636.03
2023-02-19T19:32:31.926Z,99646.53
2023-02-19T19:34:58.780Z,99649.13
2023-02-19T19:37:28.345Z,99651.69
2023-02-19T19:39:56.584Z,99662.19
2023-02-19T19:42:24.050Z,99656.06
2023-02-19T19:44:50.908Z,99660.41
2023-02-19T19:47:17.849Z,99651.78
2023-02-19T19:49:47.455Z,99664.81
2023-02-19T19:52:14.984Z,99666.59
2023-02-19T19:54:45.018Z,99660.44
2023-02-19T19:57:12.046Z,99662.16
2023-02-19T19:59:39.699Z,99669.06
2023-02-19T20:02:07.950Z,99666.50
2023-02-19T20:04:35.003Z,99670.78
2023-02-19T20:07:02.531Z,99684.66
2023-02-19T20:09:29.624Z,99683.78
2023-02-19T20:11:57.176Z,99674.19
2023-02-19T20:14:25.448Z,99675.97
2023-02-19T20:16:53.660Z,99674.22
2023-02-19T20:19:21.005Z,99688.13
2023-02-19T20:21:53.388Z,99685.50
2023-02-19T20:24:28.701Z,99693.25
2023-02-19T20:27:00.643Z,99693.16
2023-02-19T20:29:29.179Z,99699.28
2023-02-19T20:32:00.037Z,99695.84
2023-02-19T20:34:46.362Z,99695.72
2023-02-19T20:37:13.537Z,99704.47
2023-02-19T20:39:40.485Z,99698.44
2023-02-19T20:42:07.647Z,99707.19
2023-02-19T20:44:34.638Z,99709.84
2023-02-19T20:47:01.778Z,99697.56
2023-02-19T20:49:30.940Z,99711.53
2023-02-19T20:52:01.031Z,99715.00
2023-02-19T20:54:30.199Z,99719.28
2023-02-19T20:57:00.288Z,99710.59
2023-02-19T20:59:30.948Z,99720.19
2023-02-19T21:01:59.083Z,99723.72
2023-02-19T21:04:26.445Z,99727.22
2023-02-19T21:06:53.305Z,99718.63
2023-02-19T21:09:20.734Z,99725.44
2023-02-19T21:11:48.369Z,99717.66
2023-02-19T21:14:15.796Z,99730.69
2023-02-19T21:16:42.689Z,99722.91
2023-02-19T21:19:09.561Z,99722.03
2023-02-19T21:21:36.663Z,99707.28
2023-02-19T21:24:03.692Z,99708.19
2023-02-19T21:26:56.363Z,99715.16
2023-02-19T21:29:23.248Z,99718.63
2023-02-19T21:31:52.646Z,99728.13
2023-02-19T21:34:22.789Z,99729.81
2023-02-19T21:36:49.627Z,99743.69
2023-02-19T21:39:18.742Z,99738.44
2023-02-19T21:41:46.116Z,99755.72
2023-02-19T21:44:13.364Z,99748.69
2023-02-19T21:46:40.306Z,99755.69
2023-02-19T21:49:07.425Z,99755.66
2023-02-19T21:51:40.588Z,99762.56
2023-02-19T21:54:09.056Z,99760.69
2023-02-19T21:56:37.261Z,99762.31
2023-02-19T21:59:04.668Z,99771.03
2023-02-19T22:01:35.361Z,99759.78
2023-02-19T22:04:02.252Z,99769.41
2023-02-19T22:06:30.796Z,99760.69
2023-02-19T22:08:59.011Z,99762.41
2023-02-19T22:11:44.333Z,99758.94
2023-02-19T22:14:11.267Z,99758.94
2023-02-19T22:16:38.209Z,99760.75
2023-02-19T22:19:05.051Z,99768.53
2023-02-19T22:21:35.603Z,99775.53
2023-02-19T22:24:03.438Z,99768.63
2023-02-19T22:26:35.674Z,99786.91
2023-02-19T22:29:07.316Z,99799.88
2023-02-19T22:31:35.254Z,99788.53
2023-02-19T22:34:02.465Z,99798.16
2023-02-19T22:36:31.238Z,99804.25
2023-02-19T22:38:58.322Z,99806.91
2023-02-19T22:41:26.160Z,99824.16
2023-02-19T22:43:57.469Z,99833.72
2023-02-19T22:46:26.404Z,99824.97
2023-02-19T22:48:53.209Z,99849.22
2023-02-19T22:51:22.595Z,99854.22
2023-02-19T22:53:52.471Z,99855.16
2023-02-19T22:56:20.778Z,99862.84
2023-02-19T22:58:47.786Z,99861.28
2023-02-19T23:01:15.046Z,99856.78
2023-02-19T23:03:49.081Z,99868.22
2023-02-19T23:06:17.743Z,99859.41
2023-02-19T23:08:44.759Z,99871.53
2023-02-19T23:11:13.319Z,99860.03
2023-02-19T23:13:42.931Z,99858.28
2023-02-19T23:16:09.953Z,99856.28
2023-02-19T23:18:36.966Z,99848.50
2023-02-19T23:21:03.876Z,99864.13
2023-02-19T23:23:30.727Z,99865.03
2023-02-19T23:25:57.555Z,99855.28
2023-02-19T23:28:25.466Z,99873.56
2023-02-19T23:30:52.386Z,99864.94
2023-02-19T23:33:19.345Z,99875.13
2023-02-19T23:35:46.166Z,99876.84
2023-02-19T23:38:13.007Z,99885.72
2023-02-19T23:40:40.217Z,99887.25
2023-02-19T23:43:09.771Z,99873.28
2023-02-19T23:45:36.583Z,99888.06
2023-02-19T23:48:03.600Z,99877.53
2023-02-19T23:50:30.429Z,99881.97
2023-02-19T23:52:59.273Z,99883.56
2023-02-19T23:55:26.731Z,99887.13
2023-02-19T23:57:53.870Z,99876.44
